PWSweather.com
Personal Weather Stations
Station Observations
GRANG4
Grangeville, ID 83530

Grangeville, ID 83530

Lat: 45.922, Lon: -116.126

Elevation: 3460

Station Type: Davis Vantage Pro 2 wireless

High Low Average
Temperature 51.3°F10.7°C 35.4°F1.9°C 42.9°F6.1°C
Dew Point 37.3°F2.9°C 24.1°F-4.4°C 29.3°F-1.5°C
Winds 12.3 mph 19.8 kmh Calm Calm 3.0 mph SE4.8 kmh SE
Wind Gusts 21.0 mph33.8 kmh -- 8.0 mph12.9 kmh
Humidity 72% 39% 59%
Pressure 30.07 in1018.3 mb 30.02 in1016.6 mb -
Precipitation 0.01 in0.3 mm - -
Hour Temp Dew Point Humidity Winds Wind Gusts Pressure Precip Precip Rate Daily Precip Total
12:03 AM 35.4°F1.9°C 24.9°F-3.9°C 65% 1.0 mph S1.6 kmh S 3.0 mph4.8 kmh 30.07 in1018.3 mb 0.00 in0.0 mm 0.00 in/hr0.0 mm/hr 0.00 in0.0 mm
12:08 AM 35.6°F2.0°C 25.1°F-3.8°C 65% 1.5 mph S2.4 kmh S 3.0 mph4.8 kmh 30.07 in1018.3 mb 0.00 in0.0 mm 0.00 in/hr0.0 mm/hr 0.00 in0.0 mm
12:13 AM 35.6°F2.0°C 24.7°F-4.1°C 64% 1.3 mph S2.1 kmh S 3.0 mph4.8 kmh 30.07 in1018.3 mb 0.00 in0.0 mm 0.00 in/hr0.0 mm/hr 0.00 in0.0 mm
12:18 AM 35.7°F2.1°C 24.4°F-4.2°C 63% 1.9 mph S3.1 kmh S 3.0 mph4.8 kmh 30.07 in1018.3 mb 0.00 in0.0 mm 0.00 in/hr0.0 mm/hr 0.00 in0.0 mm
12:23 AM 35.8°F2.1°C 24.5°F-4.2°C 63% Calm Calm 3.0 mph4.8 kmh 30.07 in1018.3 mb 0.00 in0.0 mm 0.00 in/hr0.0 mm/hr 0.00 in0.0 mm
12:28 AM 35.8°F2.1°C 24.5°F-4.2°C 63% 1.5 mph S2.4 kmh S 2.0 mph3.2 kmh 30.07 in1018.3 mb 0.00 in0.0 mm 0.00 in/hr0.0 mm/hr 0.00 in0.0 mm
12:33 AM 35.8°F2.1°C 24.5°F-4.2°C 63% 1.4 mph S2.3 kmh S 3.0 mph4.8 kmh 30.07 in1018.3 mb 0.00 in0.0 mm 0.00 in/hr0.0 mm/hr 0.00 in0.0 mm
12:38 AM 35.8°F2.1°C 24.5°F-4.2°C 63% 1.8 mph S2.9 kmh S 3.0 mph4.8 kmh 30.07 in1018.3 mb 0.00 in0.0 mm 0.00 in/hr0.0 mm/hr 0.00 in0.0 mm
12:43 AM 35.7°F2.1°C 24.4°F-4.2°C 63% 1.0 mph S1.6 kmh S 3.0 mph4.8 kmh 30.07 in1018.3 mb 0.00 in0.0 mm 0.00 in/hr0.0 mm/hr 0.00 in0.0 mm
12:48 AM 35.7°F2.1°C 24.4°F-4.2°C 63% 1.0 mph S1.6 kmh S 2.0 mph3.2 kmh 30.07 in1018.3 mb 0.00 in0.0 mm 0.00 in/hr0.0 mm/hr 0.00 in0.0 mm
12:53 AM 35.8°F2.1°C 24.5°F-4.2°C 63% 1.9 mph S3.1 kmh S 3.0 mph4.8 kmh 30.06 in1017.9 mb 0.00 in0.0 mm 0.00 in/hr0.0 mm/hr 0.00 in0.0 mm
12:58 AM 36.1°F2.3°C 24.8°F-4.0°C 63% 1.0 mph S1.6 kmh S 3.0 mph4.8 kmh 30.06 in1017.9 mb 0.00 in0.0 mm 0.00 in/hr0.0 mm/hr 0.00 in0.0 mm
01:03 AM 36.3°F2.4°C 24.6°F-4.1°C 62% 2.2 mph S3.5 kmh S 3.0 mph4.8 kmh 30.06 in1017.9 mb 0.00 in0.0 mm 0.00 in/hr0.0 mm/hr 0.00 in0.0 mm
01:08 AM 36.3°F2.4°C 24.6°F-4.1°C 62% 1.7 mph S2.7 kmh S 3.0 mph4.8 kmh 30.06 in1017.9 mb 0.00 in0.0 mm 0.00 in/hr0.0 mm/hr 0.00 in0.0 mm
01:13 AM 36.2°F2.3°C 24.5°F-4.2°C 62% 1.3 mph S2.1 kmh S 3.0 mph4.8 kmh 30.06 in1017.9 mb 0.00 in0.0 mm 0.00 in/hr0.0 mm/hr 0.00 in0.0 mm
01:18 AM 36.1°F2.3°C 24.4°F-4.2°C 62% 1.7 mph S2.7 kmh S 3.0 mph4.8 kmh 30.06 in1017.9 mb 0.00 in0.0 mm 0.00 in/hr0.0 mm/hr 0.00 in0.0 mm
01:23 AM 35.8°F2.1°C 24.1°F-4.4°C 62% 1.0 mph S1.6 kmh S 2.0 mph3.2 kmh 30.06 in1017.9 mb 0.00 in0.0 mm 0.00 in/hr0.0 mm/hr 0.00 in0.0 mm
01:28 AM 35.7°F2.1°C 24.4°F-4.2°C 63% 1.8 mph S2.9 kmh S 2.0 mph3.2 kmh 30.07 in1018.3 mb 0.00 in0.0 mm 0.00 in/hr0.0 mm/hr 0.00 in0.0 mm
01:33 AM 35.7°F2.1°C 24.4°F-4.2°C 63% Calm Calm 2.0 mph3.2 kmh 30.07 in1018.3 mb 0.00 in0.0 mm 0.00 in/hr0.0 mm/hr 0.00 in0.0 mm
01:38 AM 35.6°F2.0°C 24.7°F-4.1°C 64% 2.1 mph E3.4 kmh E 3.0 mph4.8 kmh 30.07 in1018.3 mb 0.00 in0.0 mm 0.00 in/hr0.0 mm/hr 0.00 in0.0 mm
01:43 AM 35.5°F1.9°C 24.2°F-4.3°C 63% 2.1 mph E3.4 kmh E 3.0 mph4.8 kmh 30.07 in1018.3 mb 0.00 in0.0 mm 0.00 in/hr0.0 mm/hr 0.00 in0.0 mm
01:48 AM 35.5°F1.9°C 24.6°F-4.1°C 64% 1.7 mph E2.7 kmh E 3.0 mph4.8 kmh 30.06 in1017.9 mb 0.00 in0.0 mm 0.00 in/hr0.0 mm/hr 0.00 in0.0 mm
01:53 AM 35.4°F1.9°C 24.5°F-4.2°C 64% 3.0 mph E4.8 kmh E 4.0 mph6.4 kmh 30.06 in1017.9 mb 0.00 in0.0 mm 0.00 in/hr0.0 mm/hr 0.00 in0.0 mm
01:58 AM 35.5°F1.9°C 24.6°F-4.1°C 64% 2.0 mph ENE3.2 kmh ENE 4.0 mph6.4 kmh 30.07 in1018.3 mb 0.00 in0.0 mm 0.00 in/hr0.0 mm/hr 0.00 in0.0 mm
02:03 AM 35.7°F2.1°C 24.8°F-4.0°C 64% 2.0 mph ENE3.2 kmh ENE 5.0 mph8.0 kmh 30.06 in1017.9 mb 0.00 in0.0 mm 0.00 in/hr0.0 mm/hr 0.00 in0.0 mm
02:08 AM 35.8°F2.1°C 24.5°F-4.2°C 63% Calm Calm 5.0 mph8.0 kmh 30.07 in1018.3 mb 0.00 in0.0 mm 0.00 in/hr0.0 mm/hr 0.00 in0.0 mm
02:13 AM 35.9°F2.2°C 25.0°F-3.9°C 64% Calm Calm 2.0 mph3.2 kmh 30.07 in1018.3 mb 0.00 in0.0 mm 0.00 in/hr0.0 mm/hr 0.00 in0.0 mm
02:18 AM 35.9°F2.2°C 25.0°F-3.9°C 64% 1.3 mph ENE2.1 kmh ENE 2.0 mph3.2 kmh 30.07 in1018.3 mb 0.00 in0.0 mm 0.00 in/hr0.0 mm/hr 0.00 in0.0 mm
02:23 AM 35.9°F2.2°C 25.0°F-3.9°C 64% 2.0 mph E3.2 kmh E 4.0 mph6.4 kmh 30.06 in1017.9 mb 0.00 in0.0 mm 0.00 in/hr0.0 mm/hr 0.00 in0.0 mm
02:28 AM 36.3°F2.4°C 25.4°F-3.7°C 64% 1.0 mph E1.6 kmh E 4.0 mph6.4 kmh 30.06 in1017.9 mb 0.00 in0.0 mm 0.00 in/hr0.0 mm/hr 0.00 in0.0 mm
02:33 AM 36.4°F2.4°C 25.1°F-3.8°C 63% 1.8 mph E2.9 kmh E 3.0 mph4.8 kmh 30.06 in1017.9 mb 0.00 in0.0 mm 0.00 in/hr0.0 mm/hr 0.00 in0.0 mm
02:38 AM 36.5°F2.5°C 25.2°F-3.8°C 63% 1.7 mph E2.7 kmh E 3.0 mph4.8 kmh 30.06 in1017.9 mb 0.00 in0.0 mm 0.00 in/hr0.0 mm/hr 0.00 in0.0 mm
02:43 AM 36.5°F2.5°C 25.2°F-3.8°C 63% 1.4 mph E2.3 kmh E 3.0 mph4.8 kmh 30.06 in1017.9 mb 0.00 in0.0 mm 0.00 in/hr0.0 mm/hr 0.00 in0.0 mm
02:48 AM 36.6°F2.6°C 25.3°F-3.7°C 63% Calm Calm 3.0 mph4.8 kmh 30.05 in1017.6 mb 0.00 in0.0 mm 0.00 in/hr0.0 mm/hr 0.00 in0.0 mm
02:53 AM 36.6°F2.6°C 25.3°F-3.7°C 63% Calm Calm 2.0 mph3.2 kmh 30.06 in1017.9 mb 0.00 in0.0 mm 0.00 in/hr0.0 mm/hr 0.00 in0.0 mm
02:58 AM 36.7°F2.6°C 25.4°F-3.7°C 63% 1.3 mph E2.1 kmh E 2.0 mph3.2 kmh 30.06 in1017.9 mb 0.00 in0.0 mm 0.00 in/hr0.0 mm/hr 0.00 in0.0 mm
03:03 AM 36.9°F2.7°C 25.2°F-3.8°C 62% 1.5 mph E2.4 kmh E 2.0 mph3.2 kmh 30.06 in1017.9 mb 0.00 in0.0 mm 0.00 in/hr0.0 mm/hr 0.00 in0.0 mm
03:08 AM 37.2°F2.9°C 25.8°F-3.4°C 63% 2.1 mph E3.4 kmh E 3.0 mph4.8 kmh 30.06 in1017.9 mb 0.00 in0.0 mm 0.00 in/hr0.0 mm/hr 0.00 in0.0 mm
03:13 AM 37.3°F2.9°C 25.9°F-3.4°C 63% 1.3 mph E2.1 kmh E 3.0 mph4.8 kmh 30.06 in1017.9 mb 0.00 in0.0 mm 0.00 in/hr0.0 mm/hr 0.00 in0.0 mm
03:18 AM 37.3°F2.9°C 25.9°F-3.4°C 63% 1.9 mph E3.1 kmh E 3.0 mph4.8 kmh 30.06 in1017.9 mb 0.00 in0.0 mm 0.00 in/hr0.0 mm/hr 0.00 in0.0 mm
03:23 AM 37.3°F2.9°C 25.9°F-3.4°C 63% 2.2 mph WSW3.5 kmh WSW 4.0 mph6.4 kmh 30.06 in1017.9 mb 0.00 in0.0 mm 0.00 in/hr0.0 mm/hr 0.00 in0.0 mm
03:28 AM 37.2°F2.9°C 25.8°F-3.4°C 63% 1.0 mph WSW1.6 kmh WSW 4.0 mph6.4 kmh 30.06 in1017.9 mb 0.00 in0.0 mm 0.00 in/hr0.0 mm/hr 0.00 in0.0 mm
03:33 AM 37.3°F2.9°C 25.9°F-3.4°C 63% Calm Calm 2.0 mph3.2 kmh 30.06 in1017.9 mb 0.00 in0.0 mm 0.00 in/hr0.0 mm/hr 0.00 in0.0 mm
03:38 AM 37.3°F2.9°C 25.9°F-3.4°C 63% Calm Calm 2.0 mph3.2 kmh 30.06 in1017.9 mb 0.00 in0.0 mm 0.00 in/hr0.0 mm/hr 0.00 in0.0 mm
03:43 AM 37.3°F2.9°C 25.9°F-3.4°C 63% Calm Calm -- 30.06 in1017.9 mb 0.00 in0.0 mm 0.00 in/hr0.0 mm/hr 0.00 in0.0 mm
03:48 AM 37.3°F2.9°C 25.9°F-3.4°C 63% 1.0 mph WSW1.6 kmh WSW 2.0 mph3.2 kmh 30.05 in1017.6 mb 0.00 in0.0 mm 0.00 in/hr0.0 mm/hr 0.00 in0.0 mm
03:53 AM 37.3°F2.9°C 25.9°F-3.4°C 63% Calm Calm 2.0 mph3.2 kmh 30.05 in1017.6 mb 0.00 in0.0 mm 0.00 in/hr0.0 mm/hr 0.00 in0.0 mm
03:58 AM 37.2°F2.9°C 25.8°F-3.4°C 63% 1.0 mph WSW1.6 kmh WSW 1.0 mph1.6 kmh 30.05 in1017.6 mb 0.00 in0.0 mm 0.00 in/hr0.0 mm/hr 0.00 in0.0 mm
04:03 AM 37.3°F2.9°C 26.3°F-3.2°C 64% Calm Calm 1.0 mph1.6 kmh 30.04 in1017.3 mb 0.00 in0.0 mm 0.00 in/hr0.0 mm/hr 0.00 in0.0 mm
04:08 AM 37.2°F2.9°C 25.8°F-3.4°C 63% 2.5 mph WSW4.0 kmh WSW 3.0 mph4.8 kmh 30.05 in1017.6 mb 0.00 in0.0 mm 0.00 in/hr0.0 mm/hr 0.00 in0.0 mm
04:13 AM 37.0°F2.8°C 25.6°F-3.6°C 63% Calm Calm 3.0 mph4.8 kmh 30.05 in1017.6 mb 0.00 in0.0 mm 0.00 in/hr0.0 mm/hr 0.00 in0.0 mm
04:18 AM 36.8°F2.7°C 25.5°F-3.6°C 63% Calm Calm 3.0 mph4.8 kmh 30.05 in1017.6 mb 0.00 in0.0 mm 0.00 in/hr0.0 mm/hr 0.00 in0.0 mm
04:23 AM 36.9°F2.7°C 25.9°F-3.4°C 64% 1.2 mph WSW1.9 kmh WSW 3.0 mph4.8 kmh 30.04 in1017.3 mb 0.00 in0.0 mm 0.00 in/hr0.0 mm/hr 0.00 in0.0 mm
04:28 AM 36.8°F2.7°C 25.5°F-3.6°C 63% 2.9 mph W4.7 kmh W 4.0 mph6.4 kmh 30.05 in1017.6 mb 0.00 in0.0 mm 0.00 in/hr0.0 mm/hr 0.00 in0.0 mm
04:34 AM 36.7°F2.6°C 25.7°F-3.5°C 64% 1.7 mph WNW2.7 kmh WNW 4.0 mph6.4 kmh 30.04 in1017.3 mb 0.00 in0.0 mm 0.00 in/hr0.0 mm/hr 0.00 in0.0 mm
04:38 AM 36.5°F2.5°C 25.5°F-3.6°C 64% Calm Calm 3.0 mph4.8 kmh 30.04 in1017.3 mb 0.00 in0.0 mm 0.00 in/hr0.0 mm/hr 0.00 in0.0 mm
04:44 AM 36.2°F2.3°C 25.6°F-3.6°C 65% 2.6 mph S4.2 kmh S 5.0 mph8.0 kmh 30.04 in1017.3 mb 0.00 in0.0 mm 0.00 in/hr0.0 mm/hr 0.00 in0.0 mm
04:49 AM 36.5°F2.5°C 25.5°F-3.6°C 64% 1.8 mph NE2.9 kmh NE 5.0 mph8.0 kmh 30.04 in1017.3 mb 0.00 in0.0 mm 0.00 in/hr0.0 mm/hr 0.00 in0.0 mm
04:54 AM 36.6°F2.6°C 25.6°F-3.6°C 64% Calm Calm 4.0 mph6.4 kmh 30.03 in1016.9 mb 0.00 in0.0 mm 0.00 in/hr0.0 mm/hr 0.00 in0.0 mm
04:59 AM 36.7°F2.6°C 25.4°F-3.7°C 63% 2.0 mph NNE3.2 kmh NNE 3.0 mph4.8 kmh 30.03 in1016.9 mb 0.00 in0.0 mm 0.00 in/hr0.0 mm/hr 0.00 in0.0 mm
05:04 AM 36.9°F2.7°C 25.9°F-3.4°C 64% Calm Calm 3.0 mph4.8 kmh 30.03 in1016.9 mb 0.00 in0.0 mm 0.00 in/hr0.0 mm/hr 0.00 in0.0 mm
05:09 AM 37.0°F2.8°C 26.0°F-3.3°C 64% 2.2 mph E3.5 kmh E 4.0 mph6.4 kmh 30.03 in1016.9 mb 0.00 in0.0 mm 0.00 in/hr0.0 mm/hr 0.00 in0.0 mm
05:14 AM 37.2°F2.9°C 25.8°F-3.4°C 63% 3.2 mph NE5.1 kmh NE 5.0 mph8.0 kmh 30.03 in1016.9 mb 0.00 in0.0 mm 0.00 in/hr0.0 mm/hr 0.00 in0.0 mm
05:19 AM 37.4°F3.0°C 26.0°F-3.3°C 63% 1.4 mph NE2.3 kmh NE 5.0 mph8.0 kmh 30.03 in1016.9 mb 0.00 in0.0 mm 0.00 in/hr0.0 mm/hr 0.00 in0.0 mm
05:24 AM 37.7°F3.2°C 26.3°F-3.2°C 63% 2.5 mph N4.0 kmh N 4.0 mph6.4 kmh 30.03 in1016.9 mb 0.00 in0.0 mm 0.00 in/hr0.0 mm/hr 0.00 in0.0 mm
05:29 AM 37.5°F3.1°C 26.9°F-2.8°C 65% Calm Calm 4.0 mph6.4 kmh 30.03 in1016.9 mb 0.00 in0.0 mm 0.00 in/hr0.0 mm/hr 0.00 in0.0 mm
05:34 AM 37.5°F3.1°C 26.5°F-3.1°C 64% 1.9 mph N3.1 kmh N 4.0 mph6.4 kmh 30.03 in1016.9 mb 0.00 in0.0 mm 0.00 in/hr0.0 mm/hr 0.00 in0.0 mm
05:39 AM 37.3°F2.9°C 26.3°F-3.2°C 64% 1.5 mph 2.4 kmh 4.0 mph6.4 kmh 30.03 in1016.9 mb 0.00 in0.0 mm 0.00 in/hr0.0 mm/hr 0.00 in0.0 mm
05:44 AM 37.3°F2.9°C 26.3°F-3.2°C 64% 1.0 mph 1.6 kmh 2.0 mph3.2 kmh 30.03 in1016.9 mb 0.00 in0.0 mm 0.00 in/hr0.0 mm/hr 0.00 in0.0 mm
05:49 AM 37.3°F2.9°C 26.3°F-3.2°C 64% 2.0 mph 3.2 kmh 3.0 mph4.8 kmh 30.03 in1016.9 mb 0.00 in0.0 mm 0.00 in/hr0.0 mm/hr 0.00 in0.0 mm
05:54 AM 37.4°F3.0°C 26.4°F-3.1°C 64% 1.8 mph NE2.9 kmh NE 3.0 mph4.8 kmh 30.03 in1016.9 mb 0.00 in0.0 mm 0.00 in/hr0.0 mm/hr 0.00 in0.0 mm
05:59 AM 37.6°F3.1°C 26.2°F-3.2°C 63% Calm Calm 4.0 mph6.4 kmh 30.03 in1016.9 mb 0.00 in0.0 mm 0.00 in/hr0.0 mm/hr 0.00 in0.0 mm
06:04 AM 37.8°F3.2°C 26.4°F-3.1°C 63% 2.1 mph NE3.4 kmh NE 4.0 mph6.4 kmh 30.03 in1016.9 mb 0.00 in0.0 mm 0.00 in/hr0.0 mm/hr 0.00 in0.0 mm
06:09 AM 38.0°F3.3°C 26.6°F-3.0°C 63% Calm Calm 3.0 mph4.8 kmh 30.03 in1016.9 mb 0.00 in0.0 mm 0.00 in/hr0.0 mm/hr 0.00 in0.0 mm
06:14 AM 38.2°F3.4°C 26.8°F-2.9°C 63% 1.0 mph NE1.6 kmh NE 3.0 mph4.8 kmh 30.03 in1016.9 mb 0.00 in0.0 mm 0.00 in/hr0.0 mm/hr 0.00 in0.0 mm
06:19 AM 38.4°F3.6°C 27.0°F-2.8°C 63% 1.3 mph NE2.1 kmh NE 3.0 mph4.8 kmh 30.03 in1016.9 mb 0.00 in0.0 mm 0.00 in/hr0.0 mm/hr 0.00 in0.0 mm
06:24 AM 38.8°F3.8°C 27.0°F-2.8°C 62% 1.8 mph NE2.9 kmh NE 3.0 mph4.8 kmh 30.03 in1016.9 mb 0.00 in0.0 mm 0.00 in/hr0.0 mm/hr 0.00 in0.0 mm
06:29 AM 39.1°F3.9°C 26.4°F-3.1°C 60% 1.9 mph NE3.1 kmh NE 4.0 mph6.4 kmh 30.03 in1016.9 mb 0.00 in0.0 mm 0.00 in/hr0.0 mm/hr 0.00 in0.0 mm
06:34 AM 39.5°F4.2°C 26.8°F-2.9°C 60% 2.9 mph NNE4.7 kmh NNE 4.0 mph6.4 kmh 30.03 in1016.9 mb 0.00 in0.0 mm 0.00 in/hr0.0 mm/hr 0.00 in0.0 mm
06:39 AM 39.9°F4.4°C 26.8°F-2.9°C 59% 1.8 mph NNE2.9 kmh NNE 5.0 mph8.0 kmh 30.03 in1016.9 mb 0.00 in0.0 mm 0.00 in/hr0.0 mm/hr 0.00 in0.0 mm
06:44 AM 40.2°F4.6°C 26.6°F-3.0°C 58% 4.5 mph N7.2 kmh N 6.0 mph9.7 kmh 30.03 in1016.9 mb 0.00 in0.0 mm 0.00 in/hr0.0 mm/hr 0.00 in0.0 mm
06:49 AM 40.5°F4.7°C 26.9°F-2.8°C 58% 3.6 mph NNE5.8 kmh NNE 8.0 mph12.9 kmh 30.02 in1016.6 mb 0.00 in0.0 mm 0.00 in/hr0.0 mm/hr 0.00 in0.0 mm
06:54 AM 40.7°F4.8°C 27.1°F-2.7°C 58% 5.5 mph NE8.9 kmh NE 8.0 mph12.9 kmh 30.02 in1016.6 mb 0.00 in0.0 mm 0.00 in/hr0.0 mm/hr 0.00 in0.0 mm
06:59 AM 40.7°F4.8°C 27.1°F-2.7°C 58% 4.7 mph NE7.6 kmh NE 9.0 mph14.5 kmh 30.02 in1016.6 mb 0.00 in0.0 mm 0.00 in/hr0.0 mm/hr 0.00 in0.0 mm
07:04 AM 40.8°F4.9°C 28.0°F-2.2°C 60% 2.4 mph E3.9 kmh E 9.0 mph14.5 kmh 30.02 in1016.6 mb 0.00 in0.0 mm 0.00 in/hr0.0 mm/hr 0.00 in0.0 mm
07:09 AM 40.8°F4.9°C 28.5°F-1.9°C 61% 4.3 mph NE6.9 kmh NE 7.0 mph11.3 kmh 30.02 in1016.6 mb 0.00 in0.0 mm 0.00 in/hr0.0 mm/hr 0.00 in0.0 mm
07:14 AM 41.1°F5.1°C 27.9°F-2.3°C 59% 2.8 mph N4.5 kmh N 7.0 mph11.3 kmh 30.03 in1016.9 mb 0.00 in0.0 mm 0.00 in/hr0.0 mm/hr 0.00 in0.0 mm
07:19 AM 41.4°F5.2°C 28.2°F-2.1°C 59% 2.8 mph N4.5 kmh N 5.0 mph8.0 kmh 30.03 in1016.9 mb 0.00 in0.0 mm 0.00 in/hr0.0 mm/hr 0.00 in0.0 mm
07:24 AM 41.7°F5.4°C 28.1°F-2.2°C 58% 4.7 mph N7.6 kmh N 7.0 mph11.3 kmh 30.03 in1016.9 mb 0.00 in0.0 mm 0.00 in/hr0.0 mm/hr 0.00 in0.0 mm
07:29 AM 41.7°F5.4°C 28.1°F-2.2°C 58% 5.7 mph NNE9.2 kmh NNE 7.0 mph11.3 kmh 30.02 in1016.6 mb 0.00 in0.0 mm 0.00 in/hr0.0 mm/hr 0.00 in0.0 mm
07:34 AM 41.8°F5.4°C 28.2°F-2.1°C 58% 3.9 mph NE6.3 kmh NE 7.0 mph11.3 kmh 30.03 in1016.9 mb 0.00 in0.0 mm 0.00 in/hr0.0 mm/hr 0.00 in0.0 mm
07:39 AM 41.9°F5.5°C 28.2°F-2.1°C 58% 2.5 mph NE4.0 kmh NE 6.0 mph9.7 kmh 30.03 in1016.9 mb 0.00 in0.0 mm 0.00 in/hr0.0 mm/hr 0.00 in0.0 mm
07:44 AM 42.1°F5.6°C 28.9°F-1.7°C 59% 2.9 mph E4.7 kmh E 5.0 mph8.0 kmh 30.03 in1016.9 mb 0.00 in0.0 mm 0.00 in/hr0.0 mm/hr 0.00 in0.0 mm
07:49 AM 42.3°F5.7°C 28.6°F-1.9°C 58% 2.8 mph ENE4.5 kmh ENE 5.0 mph8.0 kmh 30.03 in1016.9 mb 0.00 in0.0 mm 0.00 in/hr0.0 mm/hr 0.00 in0.0 mm
07:54 AM 42.6°F5.9°C 28.9°F-1.7°C 58% 2.3 mph NNE3.7 kmh NNE 5.0 mph8.0 kmh 30.04 in1017.3 mb 0.00 in0.0 mm 0.00 in/hr0.0 mm/hr 0.00 in0.0 mm
07:59 AM 42.9°F6.1°C 29.2°F-1.6°C 58% 1.2 mph NNE1.9 kmh NNE 5.0 mph8.0 kmh 30.04 in1017.3 mb 0.00 in0.0 mm 0.00 in/hr0.0 mm/hr 0.00 in0.0 mm
08:04 AM 43.2°F6.2°C 28.6°F-1.9°C 56% 3.1 mph NNE5.0 kmh NNE 5.0 mph8.0 kmh 30.04 in1017.3 mb 0.00 in0.0 mm 0.00 in/hr0.0 mm/hr 0.00 in0.0 mm
08:09 AM 43.4°F6.3°C 28.3°F-2.1°C 55% 2.7 mph NE4.3 kmh NE 7.0 mph11.3 kmh 30.04 in1017.3 mb 0.00 in0.0 mm 0.00 in/hr0.0 mm/hr 0.00 in0.0 mm
08:14 AM 43.7°F6.5°C 29.1°F-1.6°C 56% 1.6 mph NE2.6 kmh NE 7.0 mph11.3 kmh 30.04 in1017.3 mb 0.00 in0.0 mm 0.00 in/hr0.0 mm/hr 0.00 in0.0 mm
08:19 AM 44.2°F6.8°C 29.1°F-1.6°C 55% 1.3 mph NE2.1 kmh NE 7.0 mph11.3 kmh 30.04 in1017.3 mb 0.00 in0.0 mm 0.00 in/hr0.0 mm/hr 0.00 in0.0 mm
08:24 AM 44.7°F7.1°C 30.0°F-1.1°C 56% 3.3 mph WNW5.3 kmh WNW 7.0 mph11.3 kmh 30.04 in1017.3 mb 0.00 in0.0 mm 0.00 in/hr0.0 mm/hr 0.00 in0.0 mm
08:29 AM 45.9°F7.7°C 27.2°F-2.7°C 48% 6.4 mph SW10.3 kmh SW 10.0 mph16.1 kmh 30.04 in1017.3 mb 0.00 in0.0 mm 0.00 in/hr0.0 mm/hr 0.00 in0.0 mm
08:34 AM 47.4°F8.6°C 27.0°F-2.8°C 45% 8.4 mph SW13.5 kmh SW 13.0 mph20.9 kmh 30.04 in1017.3 mb 0.00 in0.0 mm 0.00 in/hr0.0 mm/hr 0.00 in0.0 mm
08:39 AM 48.6°F9.2°C 28.1°F-2.2°C 45% 6.2 mph WSW10.0 kmh WSW 13.0 mph20.9 kmh 30.04 in1017.3 mb 0.00 in0.0 mm 0.00 in/hr0.0 mm/hr 0.00 in0.0 mm
08:44 AM 49.3°F9.6°C 27.6°F-2.4°C 43% 4.7 mph SW7.6 kmh SW 13.0 mph20.9 kmh 30.04 in1017.3 mb 0.00 in0.0 mm 0.00 in/hr0.0 mm/hr 0.00 in0.0 mm
08:49 AM 49.8°F9.9°C 28.6°F-1.9°C 44% 4.2 mph SSW6.8 kmh SSW 12.0 mph19.3 kmh 30.04 in1017.3 mb 0.00 in0.0 mm 0.00 in/hr0.0 mm/hr 0.00 in0.0 mm
08:54 AM 50.0°F10.0°C 27.0°F-2.8°C 41% 7.5 mph SW12.1 kmh SW 16.0 mph25.7 kmh 30.04 in1017.3 mb 0.00 in0.0 mm 0.00 in/hr0.0 mm/hr 0.00 in0.0 mm
08:59 AM 50.2°F10.1°C 28.4°F-2.0°C 43% 4.8 mph SSW7.7 kmh SSW 16.0 mph25.7 kmh 30.04 in1017.3 mb 0.00 in0.0 mm 0.00 in/hr0.0 mm/hr 0.00 in0.0 mm
09:04 AM 50.2°F10.1°C 26.6°F-3.0°C 40% 4.8 mph SW7.7 kmh SW 16.0 mph25.7 kmh 30.04 in1017.3 mb 0.00 in0.0 mm 0.00 in/hr0.0 mm/hr 0.00 in0.0 mm
09:09 AM 50.2°F10.1°C 27.2°F-2.7°C 41% 4.7 mph SSW7.6 kmh SSW 12.0 mph19.3 kmh 30.04 in1017.3 mb 0.00 in0.0 mm 0.00 in/hr0.0 mm/hr 0.00 in0.0 mm
09:14 AM 50.2°F10.1°C 27.2°F-2.7°C 41% 4.9 mph SW7.9 kmh SW 10.0 mph16.1 kmh 30.04 in1017.3 mb 0.00 in0.0 mm 0.00 in/hr0.0 mm/hr 0.00 in0.0 mm
09:19 AM 50.2°F10.1°C 26.0°F-3.3°C 39% 9.0 mph SW14.5 kmh SW 13.0 mph20.9 kmh 30.04 in1017.3 mb 0.00 in0.0 mm 0.00 in/hr0.0 mm/hr 0.00 in0.0 mm
09:24 AM 50.1°F10.1°C 26.5°F-3.1°C 40% 9.3 mph SW15.0 kmh SW 13.0 mph20.9 kmh 30.04 in1017.3 mb 0.00 in0.0 mm 0.00 in/hr0.0 mm/hr 0.00 in0.0 mm
09:29 AM 50.0°F10.0°C 25.8°F-3.4°C 39% 7.3 mph SW11.7 kmh SW 21.0 mph33.8 kmh 30.04 in1017.3 mb 0.00 in0.0 mm 0.00 in/hr0.0 mm/hr 0.00 in0.0 mm
09:34 AM 50.1°F10.1°C 26.5°F-3.1°C 40% 7.4 mph WSW11.9 kmh WSW 21.0 mph33.8 kmh 30.04 in1017.3 mb 0.00 in0.0 mm 0.00 in/hr0.0 mm/hr 0.00 in0.0 mm
09:40 AM 50.2°F10.1°C 27.2°F-2.7°C 41% 7.1 mph WSW11.4 kmh WSW 15.0 mph24.1 kmh 30.05 in1017.6 mb 0.00 in0.0 mm 0.00 in/hr0.0 mm/hr 0.00 in0.0 mm
09:45 AM 50.3°F10.2°C 27.3°F-2.6°C 41% 7.3 mph WSW11.7 kmh WSW 13.0 mph20.9 kmh 30.05 in1017.6 mb 0.00 in0.0 mm 0.00 in/hr0.0 mm/hr 0.00 in0.0 mm
09:50 AM 50.3°F10.2°C 27.9°F-2.3°C 42% 9.8 mph WSW15.8 kmh WSW 15.0 mph24.1 kmh 30.05 in1017.6 mb 0.00 in0.0 mm 0.00 in/hr0.0 mm/hr 0.00 in0.0 mm
09:55 AM 50.3°F10.2°C 27.9°F-2.3°C 42% 9.9 mph WSW15.9 kmh WSW 15.0 mph24.1 kmh 30.05 in1017.6 mb 0.00 in0.0 mm 0.00 in/hr0.0 mm/hr 0.00 in0.0 mm
10:00 AM 50.2°F10.1°C 28.4°F-2.0°C 43% 6.2 mph WSW10.0 kmh WSW 16.0 mph25.7 kmh 30.05 in1017.6 mb 0.00 in0.0 mm 0.00 in/hr0.0 mm/hr 0.00 in0.0 mm
10:05 AM 50.2°F10.1°C 27.8°F-2.3°C 42% 9.3 mph WSW15.0 kmh WSW 16.0 mph25.7 kmh 30.04 in1017.3 mb 0.00 in0.0 mm 0.00 in/hr0.0 mm/hr 0.00 in0.0 mm
10:10 AM 50.1°F10.1°C 28.3°F-2.1°C 43% 7.7 mph WSW12.4 kmh WSW 16.0 mph25.7 kmh 30.04 in1017.3 mb 0.00 in0.0 mm 0.00 in/hr0.0 mm/hr 0.00 in0.0 mm
10:15 AM 50.2°F10.1°C 29.6°F-1.3°C 45% 6.6 mph WSW10.6 kmh WSW 16.0 mph25.7 kmh 30.03 in1016.9 mb 0.00 in0.0 mm 0.00 in/hr0.0 mm/hr 0.00 in0.0 mm
10:20 AM 50.4°F10.2°C 29.7°F-1.3°C 45% 5.8 mph WSW9.3 kmh WSW 16.0 mph25.7 kmh 30.03 in1016.9 mb 0.00 in0.0 mm 0.00 in/hr0.0 mm/hr 0.00 in0.0 mm
10:25 AM 50.6°F10.3°C 30.5°F-0.8°C 46% 9.8 mph WSW15.8 kmh WSW 18.0 mph29.0 kmh 30.03 in1016.9 mb 0.00 in0.0 mm 0.00 in/hr0.0 mm/hr 0.00 in0.0 mm
10:30 AM 50.6°F10.3°C 31.0°F-0.6°C 47% 4.8 mph SW7.7 kmh SW 18.0 mph29.0 kmh 30.03 in1016.9 mb 0.00 in0.0 mm 0.00 in/hr0.0 mm/hr 0.00 in0.0 mm
10:35 AM 50.8°F10.4°C 31.2°F-0.4°C 47% 8.5 mph SSW13.7 kmh SSW 18.0 mph29.0 kmh 30.03 in1016.9 mb 0.00 in0.0 mm 0.00 in/hr0.0 mm/hr 0.00 in0.0 mm
10:40 AM 50.9°F10.5°C 31.8°F-0.1°C 48% 8.2 mph SSW13.2 kmh SSW 18.0 mph29.0 kmh 30.03 in1016.9 mb 0.00 in0.0 mm 0.00 in/hr0.0 mm/hr 0.00 in0.0 mm
10:45 AM 51.1°F10.6°C 31.5°F-0.3°C 47% 6.3 mph SSW10.1 kmh SSW 13.0 mph20.9 kmh 30.02 in1016.6 mb 0.00 in0.0 mm 0.00 in/hr0.0 mm/hr 0.00 in0.0 mm
10:50 AM 51.3°F10.7°C 31.1°F-0.5°C 46% 7.1 mph SSW11.4 kmh SSW 12.0 mph19.3 kmh 30.03 in1016.9 mb 0.00 in0.0 mm 0.00 in/hr0.0 mm/hr 0.00 in0.0 mm
10:55 AM 51.2°F10.7°C 32.1°F0.1°C 48% 6.4 mph SSW10.3 kmh SSW 16.0 mph25.7 kmh 30.02 in1016.6 mb 0.00 in0.0 mm 0.00 in/hr0.0 mm/hr 0.00 in0.0 mm
11:00 AM 51.0°F10.6°C 31.4°F-0.3°C 47% 12.3 mph SW19.8 kmh SW 18.0 mph29.0 kmh 30.02 in1016.6 mb 0.00 in0.0 mm 0.00 in/hr0.0 mm/hr 0.00 in0.0 mm
11:05 AM 50.7°F10.4°C 31.7°F-0.2°C 48% 3.9 mph WSW6.3 kmh WSW 18.0 mph29.0 kmh 30.02 in1016.6 mb 0.00 in0.0 mm 0.00 in/hr0.0 mm/hr 0.00 in0.0 mm
11:10 AM 50.7°F10.4°C 33.2°F0.7°C 51% 4.5 mph S7.2 kmh S 17.0 mph27.4 kmh 30.03 in1016.9 mb 0.00 in0.0 mm 0.00 in/hr0.0 mm/hr 0.00 in0.0 mm
11:15 AM 50.8°F10.4°C 33.3°F0.7°C 51% 4.7 mph SW7.6 kmh SW 11.0 mph17.7 kmh 30.02 in1016.6 mb 0.00 in0.0 mm 0.00 in/hr0.0 mm/hr 0.00 in0.0 mm
11:20 AM 50.8°F10.4°C 33.8°F1.0°C 52% 6.1 mph SSW9.8 kmh SSW 11.0 mph17.7 kmh 30.02 in1016.6 mb 0.00 in0.0 mm 0.00 in/hr0.0 mm/hr 0.00 in0.0 mm
11:25 AM 50.8°F10.4°C 33.3°F0.7°C 51% 2.4 mph S3.9 kmh S 11.0 mph17.7 kmh 30.02 in1016.6 mb 0.00 in0.0 mm 0.00 in/hr0.0 mm/hr 0.00 in0.0 mm
11:30 AM 50.7°F10.4°C 33.7°F0.9°C 52% 3.9 mph SSW6.3 kmh SSW 8.0 mph12.9 kmh 30.02 in1016.6 mb 0.00 in0.0 mm 0.00 in/hr0.0 mm/hr 0.00 in0.0 mm
11:35 AM 50.5°F10.3°C 34.0°F1.1°C 53% 2.4 mph W3.9 kmh W 8.0 mph12.9 kmh 30.02 in1016.6 mb 0.00 in0.0 mm 0.00 in/hr0.0 mm/hr 0.00 in0.0 mm
11:40 AM 50.4°F10.2°C 33.9°F1.1°C 53% 5.5 mph SSW8.9 kmh SSW 9.0 mph14.5 kmh 30.02 in1016.6 mb 0.00 in0.0 mm 0.00 in/hr0.0 mm/hr 0.00 in0.0 mm
11:45 AM 50.2°F10.1°C 34.2°F1.2°C 54% 3.3 mph SW5.3 kmh SW 9.0 mph14.5 kmh 30.02 in1016.6 mb 0.00 in0.0 mm 0.00 in/hr0.0 mm/hr 0.00 in0.0 mm
11:50 AM 50.2°F10.1°C 35.2°F1.8°C 56% 2.6 mph SE4.2 kmh SE 9.0 mph14.5 kmh 30.02 in1016.6 mb 0.00 in0.0 mm 0.00 in/hr0.0 mm/hr 0.00 in0.0 mm
11:55 AM 50.1°F10.1°C 35.1°F1.7°C 56% 3.5 mph SW5.6 kmh SW 11.0 mph17.7 kmh 30.02 in1016.6 mb 0.00 in0.0 mm 0.00 in/hr0.0 mm/hr 0.00 in0.0 mm
12:00 PM 50.1°F10.1°C 35.5°F1.9°C 57% 3.4 mph S5.5 kmh S 11.0 mph17.7 kmh 30.02 in1016.6 mb 0.00 in0.0 mm 0.00 in/hr0.0 mm/hr 0.00 in0.0 mm
12:05 PM 50.0°F10.0°C 35.4°F1.9°C 57% 3.0 mph SW4.8 kmh SW 7.0 mph11.3 kmh 30.02 in1016.6 mb 0.00 in0.0 mm 0.00 in/hr0.0 mm/hr 0.00 in0.0 mm
12:10 PM 50.1°F10.1°C 35.5°F1.9°C 57% 2.6 mph S4.2 kmh S 7.0 mph11.3 kmh 30.02 in1016.6 mb 0.00 in0.0 mm 0.00 in/hr0.0 mm/hr 0.00 in0.0 mm
12:15 PM 50.2°F10.1°C 35.2°F1.8°C 56% 2.9 mph SSW4.7 kmh SSW 7.0 mph11.3 kmh 30.02 in1016.6 mb 0.00 in0.0 mm 0.00 in/hr0.0 mm/hr 0.00 in0.0 mm
12:20 PM 50.4°F10.2°C 35.3°F1.8°C 56% 3.6 mph WSW5.8 kmh WSW 6.0 mph9.7 kmh 30.02 in1016.6 mb 0.00 in0.0 mm 0.00 in/hr0.0 mm/hr 0.00 in0.0 mm
12:25 PM 50.3°F10.2°C 34.8°F1.6°C 55% 5.9 mph NE9.5 kmh NE 10.0 mph16.1 kmh 30.02 in1016.6 mb 0.00 in0.0 mm 0.00 in/hr0.0 mm/hr 0.00 in0.0 mm
12:30 PM 49.4°F9.7°C 35.7°F2.1°C 59% 3.9 mph N6.3 kmh N 10.0 mph16.1 kmh 30.02 in1016.6 mb 0.00 in0.0 mm 0.00 in/hr0.0 mm/hr 0.00 in0.0 mm
12:35 PM 49.3°F9.6°C 35.2°F1.8°C 58% 1.0 mph NW1.6 kmh NW 9.0 mph14.5 kmh 30.02 in1016.6 mb 0.00 in0.0 mm 0.00 in/hr0.0 mm/hr 0.00 in0.0 mm
12:41 PM 48.9°F9.4°C 35.3°F1.8°C 59% 4.6 mph NNE7.4 kmh NNE 7.0 mph11.3 kmh 30.02 in1016.6 mb 0.00 in0.0 mm 0.00 in/hr0.0 mm/hr 0.00 in0.0 mm
12:46 PM 48.5°F9.2°C 35.3°F1.8°C 60% 5.4 mph NE8.7 kmh NE 7.0 mph11.3 kmh 30.02 in1016.6 mb 0.00 in0.0 mm 0.00 in/hr0.0 mm/hr 0.00 in0.0 mm
12:51 PM 47.7°F8.7°C 35.4°F1.9°C 62% 4.4 mph NE7.1 kmh NE 8.0 mph12.9 kmh 30.02 in1016.6 mb 0.00 in0.0 mm 0.00 in/hr0.0 mm/hr 0.00 in0.0 mm
12:56 PM 47.6°F8.7°C 36.1°F2.3°C 64% 1.8 mph N2.9 kmh N 8.0 mph12.9 kmh 30.02 in1016.6 mb 0.00 in0.0 mm 0.00 in/hr0.0 mm/hr 0.00 in0.0 mm
01:01 PM 47.7°F8.7°C 36.2°F2.3°C 64% 4.9 mph N7.9 kmh N 9.0 mph14.5 kmh 30.02 in1016.6 mb 0.00 in0.0 mm 0.00 in/hr0.0 mm/hr 0.00 in0.0 mm
01:06 PM 47.5°F8.6°C 37.2°F2.9°C 67% 2.8 mph NW4.5 kmh NW 9.0 mph14.5 kmh 30.02 in1016.6 mb 0.00 in0.0 mm 0.00 in/hr0.0 mm/hr 0.00 in0.0 mm
01:11 PM 47.7°F8.7°C 36.6°F2.6°C 65% 3.2 mph NW5.1 kmh NW 9.0 mph14.5 kmh 30.02 in1016.6 mb 0.00 in0.0 mm 0.00 in/hr0.0 mm/hr 0.00 in0.0 mm
01:16 PM 47.8°F8.8°C 36.7°F2.6°C 65% 4.8 mph NNE7.7 kmh NNE 7.0 mph11.3 kmh 30.02 in1016.6 mb 0.00 in0.0 mm 0.00 in/hr0.0 mm/hr 0.00 in0.0 mm
01:21 PM 47.8°F8.8°C 37.1°F2.8°C 66% 5.2 mph NE8.4 kmh NE 8.0 mph12.9 kmh 30.02 in1016.6 mb 0.00 in0.0 mm 0.00 in/hr0.0 mm/hr 0.00 in0.0 mm
01:26 PM 47.6°F8.7°C 36.5°F2.5°C 65% 3.5 mph NE5.6 kmh NE 8.0 mph12.9 kmh 30.02 in1016.6 mb 0.00 in0.0 mm 0.00 in/hr0.0 mm/hr 0.00 in0.0 mm
01:31 PM 47.8°F8.8°C 37.1°F2.8°C 66% 3.1 mph NE5.0 kmh NE 8.0 mph12.9 kmh 30.02 in1016.6 mb 0.00 in0.0 mm 0.00 in/hr0.0 mm/hr 0.00 in0.0 mm
01:36 PM 47.8°F8.8°C 36.7°F2.6°C 65% 1.4 mph NNE2.3 kmh NNE 5.0 mph8.0 kmh 30.02 in1016.6 mb 0.00 in0.0 mm 0.00 in/hr0.0 mm/hr 0.00 in0.0 mm
01:41 PM 47.9°F8.8°C 36.8°F2.7°C 65% 1.2 mph NNE1.9 kmh NNE 5.0 mph8.0 kmh 30.03 in1016.9 mb 0.00 in0.0 mm 0.00 in/hr0.0 mm/hr 0.00 in0.0 mm
01:46 PM 48.0°F8.9°C 37.3°F2.9°C 66% 3.2 mph NNE5.1 kmh NNE 6.0 mph9.7 kmh 30.02 in1016.6 mb 0.00 in0.0 mm 0.00 in/hr0.0 mm/hr 0.00 in0.0 mm
01:51 PM 47.9°F8.8°C 37.2°F2.9°C 66% 3.9 mph NE6.3 kmh NE 8.0 mph12.9 kmh 30.02 in1016.6 mb 0.00 in0.0 mm 0.00 in/hr0.0 mm/hr 0.00 in0.0 mm
01:56 PM 47.9°F8.8°C 37.2°F2.9°C 66% 4.2 mph NE6.8 kmh NE 8.0 mph12.9 kmh 30.02 in1016.6 mb 0.00 in0.0 mm 0.00 in/hr0.0 mm/hr 0.00 in0.0 mm
02:01 PM 47.9°F8.8°C 37.2°F2.9°C 66% 3.5 mph SSW5.6 kmh SSW 8.0 mph12.9 kmh 30.03 in1016.9 mb 0.00 in0.0 mm 0.00 in/hr0.0 mm/hr 0.00 in0.0 mm
02:06 PM 47.9°F8.8°C 36.4°F2.4°C 64% 4.7 mph SSW7.6 kmh SSW 8.0 mph12.9 kmh 30.03 in1016.9 mb 0.00 in0.0 mm 0.00 in/hr0.0 mm/hr 0.00 in0.0 mm
02:11 PM 47.8°F8.8°C 36.7°F2.6°C 65% 4.0 mph SSW6.4 kmh SSW 11.0 mph17.7 kmh 30.03 in1016.9 mb 0.00 in0.0 mm 0.00 in/hr0.0 mm/hr 0.00 in0.0 mm
02:16 PM 47.5°F8.6°C 36.8°F2.7°C 66% 5.1 mph SSW8.2 kmh SSW 11.0 mph17.7 kmh 30.03 in1016.9 mb 0.00 in0.0 mm 0.00 in/hr0.0 mm/hr 0.00 in0.0 mm
02:21 PM 47.2°F8.4°C 36.5°F2.5°C 66% 4.7 mph SW7.6 kmh SW 11.0 mph17.7 kmh 30.04 in1017.3 mb 0.00 in0.0 mm 0.00 in/hr0.0 mm/hr 0.00 in0.0 mm
02:26 PM 47.0°F8.3°C 36.3°F2.4°C 66% 3.4 mph SW5.5 kmh SW 12.0 mph19.3 kmh 30.04 in1017.3 mb 0.00 in0.0 mm 0.00 in/hr0.0 mm/hr 0.00 in0.0 mm
02:31 PM 46.7°F8.2°C 36.8°F2.7°C 68% 3.9 mph S6.3 kmh S 12.0 mph19.3 kmh 30.03 in1016.9 mb 0.00 in0.0 mm 0.00 in/hr0.0 mm/hr 0.00 in0.0 mm
02:36 PM 46.5°F8.1°C 37.0°F2.8°C 69% 4.0 mph S6.4 kmh S 11.0 mph17.7 kmh 30.03 in1016.9 mb 0.00 in0.0 mm 0.00 in/hr0.0 mm/hr 0.00 in0.0 mm
02:41 PM 46.3°F7.9°C 36.8°F2.7°C 69% 3.7 mph S6.0 kmh S 12.0 mph19.3 kmh 30.04 in1017.3 mb 0.00 in0.0 mm 0.00 in/hr0.0 mm/hr 0.00 in0.0 mm
02:46 PM 46.1°F7.8°C 36.2°F2.3°C 68% 9.3 mph SSW15.0 kmh SSW 19.0 mph30.6 kmh 30.04 in1017.3 mb 0.00 in0.0 mm 0.00 in/hr0.0 mm/hr 0.00 in0.0 mm
02:51 PM 45.9°F7.7°C 36.0°F2.2°C 68% 6.4 mph SW10.3 kmh SW 19.0 mph30.6 kmh 30.04 in1017.3 mb 0.00 in0.0 mm 0.00 in/hr0.0 mm/hr 0.00 in0.0 mm
02:56 PM 45.8°F7.7°C 36.3°F2.4°C 69% 7.6 mph SW12.2 kmh SW 14.0 mph22.5 kmh 30.04 in1017.3 mb 0.00 in0.0 mm 0.00 in/hr0.0 mm/hr 0.00 in0.0 mm
03:02 PM 45.6°F7.6°C 35.7°F2.1°C 68% 7.5 mph SW12.1 kmh SW 14.0 mph22.5 kmh 30.04 in1017.3 mb 0.00 in0.0 mm 0.00 in/hr0.0 mm/hr 0.00 in0.0 mm
03:07 PM 45.4°F7.4°C 35.9°F2.2°C 69% 8.7 mph SW14.0 kmh SW 18.0 mph29.0 kmh 30.04 in1017.3 mb 0.00 in0.0 mm 0.00 in/hr0.0 mm/hr 0.00 in0.0 mm
03:12 PM 45.3°F7.4°C 35.8°F2.1°C 69% 7.1 mph SSW11.4 kmh SSW 18.0 mph29.0 kmh 30.04 in1017.3 mb 0.00 in0.0 mm 0.00 in/hr0.0 mm/hr 0.00 in0.0 mm
03:17 PM 45.2°F7.3°C 36.1°F2.3°C 70% 5.7 mph SSW9.2 kmh SSW 13.0 mph20.9 kmh 30.04 in1017.3 mb 0.00 in0.0 mm 0.00 in/hr0.0 mm/hr 0.00 in0.0 mm
03:22 PM 45.2°F7.3°C 36.4°F2.4°C 71% 5.9 mph SW9.5 kmh SW 13.0 mph20.9 kmh 30.04 in1017.3 mb 0.00 in0.0 mm 0.00 in/hr0.0 mm/hr 0.00 in0.0 mm
03:27 PM 45.1°F7.3°C 36.3°F2.4°C 71% 5.7 mph SW9.2 kmh SW 16.0 mph25.7 kmh 30.05 in1017.6 mb 0.01 in0.3 mm 0.12 in/hr3.0 mm/hr 0.01 in0.3 mm
03:32 PM 45.1°F7.3°C 36.7°F2.6°C 72% 3.9 mph SSW6.3 kmh SSW 16.0 mph25.7 kmh 30.05 in1017.6 mb 0.01 in0.3 mm 0.00 in/hr0.0 mm/hr 0.01 in0.3 mm
03:37 PM 45.3°F7.4°C 36.5°F2.5°C 71% 8.9 mph SW14.3 kmh SW 15.0 mph24.1 kmh 30.05 in1017.6 mb 0.01 in0.3 mm 0.00 in/hr0.0 mm/hr 0.01 in0.3 mm
03:42 PM 45.3°F7.4°C 36.5°F2.5°C 71% 7.2 mph WSW11.6 kmh WSW 17.0 mph27.4 kmh 30.06 in1017.9 mb 0.01 in0.3 mm 0.00 in/hr0.0 mm/hr 0.01 in0.3 mm
03:47 PM 45.3°F7.4°C 36.5°F2.5°C 71% 7.8 mph W12.6 kmh W 17.0 mph27.4 kmh 30.06 in1017.9 mb 0.01 in0.3 mm 0.00 in/hr0.0 mm/hr 0.01 in0.3 mm
03:52 PM 45.0°F7.2°C 35.9°F2.2°C 70% 11.3 mph W18.2 kmh W 18.0 mph29.0 kmh 30.06 in1017.9 mb 0.01 in0.3 mm 0.00 in/hr0.0 mm/hr 0.01 in0.3 mm
03:57 PM 44.8°F7.1°C 35.7°F2.1°C 70% 8.9 mph WSW14.3 kmh WSW 18.0 mph29.0 kmh 30.05 in1017.6 mb 0.01 in0.3 mm 0.00 in/hr0.0 mm/hr 0.01 in0.3 mm
04:02 PM 45.1°F7.3°C 36.3°F2.4°C 71% 6.1 mph SW9.8 kmh SW 16.0 mph25.7 kmh 30.05 in1017.6 mb 0.01 in0.3 mm 0.00 in/hr0.0 mm/hr 0.01 in0.3 mm
04:07 PM 45.4°F7.4°C 37.0°F2.8°C 72% 5.4 mph SW8.7 kmh SW 14.0 mph22.5 kmh 30.05 in1017.6 mb 0.01 in0.3 mm 0.00 in/hr0.0 mm/hr 0.01 in0.3 mm
04:12 PM 45.9°F7.7°C 36.4°F2.4°C 69% 10.0 mph SW16.1 kmh SW 19.0 mph30.6 kmh 30.05 in1017.6 mb 0.01 in0.3 mm 0.00 in/hr0.0 mm/hr 0.01 in0.3 mm
04:17 PM 46.2°F7.9°C 36.3°F2.4°C 68% 9.7 mph SW15.6 kmh SW 19.0 mph30.6 kmh 30.06 in1017.9 mb 0.01 in0.3 mm 0.00 in/hr0.0 mm/hr 0.01 in0.3 mm
04:22 PM 46.4°F8.0°C 36.1°F2.3°C 67% 10.9 mph SW17.5 kmh SW 16.0 mph25.7 kmh 30.05 in1017.6 mb 0.01 in0.3 mm 0.00 in/hr0.0 mm/hr 0.01 in0.3 mm
04:27 PM 46.6°F8.1°C 36.3°F2.4°C 67% 10.2 mph SW16.4 kmh SW 24.0 mph38.6 kmh 30.05 in1017.6 mb 0.00 in0.0 mm 0.00 in/hr0.0 mm/hr 0.01 in0.3 mm
04:32 PM 46.6°F8.1°C 35.9°F2.2°C 66% 8.1 mph SW13.0 kmh SW 24.0 mph38.6 kmh 30.06 in1017.9 mb 0.00 in0.0 mm 0.00 in/hr0.0 mm/hr 0.01 in0.3 mm
04:37 PM 46.6°F8.1°C 35.9°F2.2°C 66% 7.1 mph SW11.4 kmh SW 17.0 mph27.4 kmh 30.06 in1017.9 mb 0.00 in0.0 mm 0.00 in/hr0.0 mm/hr 0.01 in0.3 mm
04:42 PM 46.6°F8.1°C 35.9°F2.2°C 66% 9.1 mph SW14.6 kmh SW 16.0 mph25.7 kmh 30.06 in1017.9 mb 0.00 in0.0 mm 0.00 in/hr0.0 mm/hr 0.01 in0.3 mm
04:47 PM 46.6°F8.1°C 35.9°F2.2°C 66% 9.4 mph SW15.1 kmh SW 13.0 mph20.9 kmh 30.06 in1017.9 mb 0.00 in0.0 mm 0.00 in/hr0.0 mm/hr 0.01 in0.3 mm
04:52 PM 46.4°F8.0°C 36.1°F2.3°C 67% 8.7 mph SW14.0 kmh SW 14.0 mph22.5 kmh 30.06 in1017.9 mb 0.00 in0.0 mm 0.00 in/hr0.0 mm/hr 0.01 in0.3 mm
04:58 PM 46.4°F8.0°C 36.1°F2.3°C 67% 8.9 mph SW14.3 kmh SW 15.0 mph24.1 kmh 30.05 in1017.6 mb 0.00 in0.0 mm 0.00 in/hr0.0 mm/hr 0.01 in0.3 mm
05:02 PM 46.4°F8.0°C 35.4°F1.9°C 65% 10.4 mph SW16.7 kmh SW 15.0 mph24.1 kmh 30.05 in1017.6 mb 0.00 in0.0 mm 0.00 in/hr0.0 mm/hr 0.01 in0.3 mm
05:07 PM 46.5°F8.1°C 36.2°F2.3°C 67% 7.3 mph SW11.7 kmh SW 17.0 mph27.4 kmh 30.05 in1017.6 mb 0.00 in0.0 mm 0.00 in/hr0.0 mm/hr 0.01 in0.3 mm
05:13 PM 46.6°F8.1°C 35.6°F2.0°C 65% 9.8 mph SW15.8 kmh SW 21.0 mph33.8 kmh 30.05 in1017.6 mb 0.00 in0.0 mm 0.00 in/hr0.0 mm/hr 0.01 in0.3 mm
05:18 PM 46.7°F8.2°C 36.0°F2.2°C 66% 4.8 mph SW7.7 kmh SW 21.0 mph33.8 kmh 30.05 in1017.6 mb 0.00 in0.0 mm 0.00 in/hr0.0 mm/hr 0.01 in0.3 mm
05:23 PM 46.7°F8.2°C 35.7°F2.1°C 65% 10.1 mph SW16.3 kmh SW 17.0 mph27.4 kmh 30.06 in1017.9 mb 0.00 in0.0 mm 0.00 in/hr0.0 mm/hr 0.01 in0.3 mm
05:28 PM 46.6°F8.1°C 35.9°F2.2°C 66% 7.2 mph SW11.6 kmh SW 17.0 mph27.4 kmh 30.05 in1017.6 mb 0.00 in0.0 mm 0.00 in/hr0.0 mm/hr 0.01 in0.3 mm
05:33 PM 46.5°F8.1°C 35.9°F2.2°C 66% 4.6 mph SW7.4 kmh SW 15.0 mph24.1 kmh 30.05 in1017.6 mb 0.00 in0.0 mm 0.00 in/hr0.0 mm/hr 0.01 in0.3 mm
05:38 PM 46.4°F8.0°C 36.1°F2.3°C 67% 4.0 mph SW6.4 kmh SW 10.0 mph16.1 kmh 30.05 in1017.6 mb 0.00 in0.0 mm 0.00 in/hr0.0 mm/hr 0.01 in0.3 mm
05:43 PM 46.2°F7.9°C 35.9°F2.2°C 67% 5.9 mph SW9.5 kmh SW 11.0 mph17.7 kmh 30.05 in1017.6 mb 0.00 in0.0 mm 0.00 in/hr0.0 mm/hr 0.01 in0.3 mm
05:48 PM 46.1°F7.8°C 35.8°F2.1°C 67% 5.2 mph SW8.4 kmh SW 11.0 mph17.7 kmh 30.05 in1017.6 mb 0.00 in0.0 mm 0.00 in/hr0.0 mm/hr 0.01 in0.3 mm
05:53 PM 46.0°F7.8°C 36.1°F2.3°C 68% 2.5 mph SSW4.0 kmh SSW 9.0 mph14.5 kmh 30.05 in1017.6 mb 0.00 in0.0 mm 0.00 in/hr0.0 mm/hr 0.01 in0.3 mm
05:58 PM 46.0°F7.8°C 36.1°F2.3°C 68% 2.9 mph S4.7 kmh S 8.0 mph12.9 kmh 30.04 in1017.3 mb 0.00 in0.0 mm 0.00 in/hr0.0 mm/hr 0.01 in0.3 mm
06:03 PM 45.8°F7.7°C 35.9°F2.2°C 68% 1.5 mph SW2.4 kmh SW 8.0 mph12.9 kmh 30.05 in1017.6 mb 0.00 in0.0 mm 0.00 in/hr0.0 mm/hr 0.01 in0.3 mm
06:08 PM 45.7°F7.6°C 36.2°F2.3°C 69% 1.7 mph S2.7 kmh S 5.0 mph8.0 kmh 30.05 in1017.6 mb 0.00 in0.0 mm 0.00 in/hr0.0 mm/hr 0.01 in0.3 mm
06:13 PM 45.6°F7.6°C 35.7°F2.1°C 68% 1.4 mph S2.3 kmh S 5.0 mph8.0 kmh 30.05 in1017.6 mb 0.00 in0.0 mm 0.00 in/hr0.0 mm/hr 0.01 in0.3 mm
06:18 PM 45.5°F7.5°C 35.6°F2.0°C 68% 3.2 mph SSW5.1 kmh SSW 7.0 mph11.3 kmh 30.05 in1017.6 mb 0.00 in0.0 mm 0.00 in/hr0.0 mm/hr 0.01 in0.3 mm
06:23 PM 45.5°F7.5°C 35.6°F2.0°C 68% 2.3 mph SSW3.7 kmh SSW 7.0 mph11.3 kmh 30.04 in1017.3 mb 0.00 in0.0 mm 0.00 in/hr0.0 mm/hr 0.01 in0.3 mm
06:28 PM 45.4°F7.4°C 35.5°F1.9°C 68% 3.6 mph SW5.8 kmh SW 7.0 mph11.3 kmh 30.05 in1017.6 mb 0.00 in0.0 mm 0.00 in/hr0.0 mm/hr 0.01 in0.3 mm
06:33 PM 45.3°F7.4°C 35.5°F1.9°C 68% 3.1 mph SW5.0 kmh SW 7.0 mph11.3 kmh 30.05 in1017.6 mb 0.00 in0.0 mm 0.00 in/hr0.0 mm/hr 0.01 in0.3 mm
06:38 PM 45.3°F7.4°C 35.5°F1.9°C 68% 3.9 mph SW6.3 kmh SW 10.0 mph16.1 kmh 30.05 in1017.6 mb 0.00 in0.0 mm 0.00 in/hr0.0 mm/hr 0.01 in0.3 mm
06:43 PM 45.3°F7.4°C 35.5°F1.9°C 68% 2.8 mph SW4.5 kmh SW 10.0 mph16.1 kmh 30.05 in1017.6 mb 0.00 in0.0 mm 0.00 in/hr0.0 mm/hr 0.01 in0.3 mm
06:48 PM 45.3°F7.4°C 35.5°F1.9°C 68% 4.4 mph SW7.1 kmh SW 9.0 mph14.5 kmh 30.05 in1017.6 mb 0.00 in0.0 mm 0.00 in/hr0.0 mm/hr 0.01 in0.3 mm
06:53 PM 45.4°F7.4°C 34.8°F1.6°C 66% 5.9 mph SW9.5 kmh SW 10.0 mph16.1 kmh 30.05 in1017.6 mb 0.00 in0.0 mm 0.00 in/hr0.0 mm/hr 0.01 in0.3 mm
06:58 PM 45.5°F7.5°C 34.9°F1.6°C 66% 4.3 mph SSW6.9 kmh SSW 10.0 mph16.1 kmh 30.05 in1017.6 mb 0.00 in0.0 mm 0.00 in/hr0.0 mm/hr 0.01 in0.3 mm
07:03 PM 45.5°F7.5°C 35.3°F1.8°C 67% 4.5 mph SW7.2 kmh SW 9.0 mph14.5 kmh 30.05 in1017.6 mb 0.00 in0.0 mm 0.00 in/hr0.0 mm/hr 0.01 in0.3 mm
07:08 PM 45.5°F7.5°C 34.5°F1.4°C 65% 6.4 mph SW10.3 kmh SW 10.0 mph16.1 kmh 30.05 in1017.6 mb 0.00 in0.0 mm 0.00 in/hr0.0 mm/hr 0.01 in0.3 mm
07:13 PM 45.6°F7.6°C 34.6°F1.4°C 65% 6.3 mph SW10.1 kmh SW 11.0 mph17.7 kmh 30.06 in1017.9 mb 0.00 in0.0 mm 0.00 in/hr0.0 mm/hr 0.01 in0.3 mm
07:18 PM 45.6°F7.6°C 34.6°F1.4°C 65% 4.1 mph SW6.6 kmh SW 11.0 mph17.7 kmh 30.06 in1017.9 mb 0.00 in0.0 mm 0.00 in/hr0.0 mm/hr 0.01 in0.3 mm
07:23 PM 45.4°F7.4°C 34.8°F1.6°C 66% 2.8 mph SW4.5 kmh SW 11.0 mph17.7 kmh 30.06 in1017.9 mb 0.00 in0.0 mm 0.00 in/hr0.0 mm/hr 0.01 in0.3 mm
07:28 PM 45.3°F7.4°C 34.3°F1.3°C 65% 6.0 mph SW9.7 kmh SW 11.0 mph17.7 kmh 30.06 in1017.9 mb 0.00 in0.0 mm 0.00 in/hr0.0 mm/hr 0.01 in0.3 mm
07:33 PM 45.2°F7.3°C 34.2°F1.2°C 65% 2.7 mph SW4.3 kmh SW 10.0 mph16.1 kmh 30.06 in1017.9 mb 0.00 in0.0 mm 0.00 in/hr0.0 mm/hr 0.01 in0.3 mm
07:38 PM 45.1°F7.3°C 34.5°F1.4°C 66% 4.3 mph SSW6.9 kmh SSW 9.0 mph14.5 kmh 30.06 in1017.9 mb 0.00 in0.0 mm 0.00 in/hr0.0 mm/hr 0.01 in0.3 mm
07:43 PM 45.1°F7.3°C 34.5°F1.4°C 66% 2.7 mph SSW4.3 kmh SSW 9.0 mph14.5 kmh 30.06 in1017.9 mb 0.00 in0.0 mm 0.00 in/hr0.0 mm/hr 0.01 in0.3 mm
07:48 PM 45.0°F7.2°C 34.4°F1.3°C 66% 3.5 mph SW5.6 kmh SW 7.0 mph11.3 kmh 30.06 in1017.9 mb 0.00 in0.0 mm 0.00 in/hr0.0 mm/hr 0.01 in0.3 mm
07:53 PM 45.1°F7.3°C 34.5°F1.4°C 66% 5.5 mph SW8.9 kmh SW 8.0 mph12.9 kmh 30.06 in1017.9 mb 0.00 in0.0 mm 0.00 in/hr0.0 mm/hr 0.01 in0.3 mm
07:58 PM 45.2°F7.3°C 34.2°F1.2°C 65% 3.9 mph SW6.3 kmh SW 8.0 mph12.9 kmh 30.06 in1017.9 mb 0.00 in0.0 mm 0.00 in/hr0.0 mm/hr 0.01 in0.3 mm
08:03 PM 45.2°F7.3°C 34.2°F1.2°C 65% 4.7 mph SSW7.6 kmh SSW 9.0 mph14.5 kmh 30.05 in1017.6 mb 0.00 in0.0 mm 0.00 in/hr0.0 mm/hr 0.01 in0.3 mm
08:09 PM 45.2°F7.3°C 34.2°F1.2°C 65% 2.9 mph SSW4.7 kmh SSW 9.0 mph14.5 kmh 30.06 in1017.9 mb 0.00 in0.0 mm 0.00 in/hr0.0 mm/hr 0.01 in0.3 mm
08:14 PM 45.2°F7.3°C 34.2°F1.2°C 65% 4.3 mph SW6.9 kmh SW 9.0 mph14.5 kmh 30.06 in1017.9 mb 0.00 in0.0 mm 0.00 in/hr0.0 mm/hr 0.01 in0.3 mm
08:19 PM 45.2°F7.3°C 33.8°F1.0°C 64% 3.9 mph SW6.3 kmh SW 9.0 mph14.5 kmh 30.06 in1017.9 mb 0.00 in0.0 mm 0.00 in/hr0.0 mm/hr 0.01 in0.3 mm
08:24 PM 45.4°F7.4°C 34.0°F1.1°C 64% 4.3 mph SW6.9 kmh SW 9.0 mph14.5 kmh 30.06 in1017.9 mb 0.00 in0.0 mm 0.00 in/hr0.0 mm/hr 0.01 in0.3 mm
08:29 PM 45.4°F7.4°C 34.0°F1.1°C 64% 2.1 mph SW3.4 kmh SW 8.0 mph12.9 kmh 30.07 in1018.3 mb 0.00 in0.0 mm 0.00 in/hr0.0 mm/hr 0.01 in0.3 mm
08:34 PM 45.4°F7.4°C 33.6°F0.9°C 63% 2.0 mph SSW3.2 kmh SSW 7.0 mph11.3 kmh 30.07 in1018.3 mb 0.00 in0.0 mm 0.00 in/hr0.0 mm/hr 0.01 in0.3 mm
08:39 PM 45.3°F7.4°C 33.9°F1.1°C 64% 1.0 mph SSW1.6 kmh SSW 4.0 mph6.4 kmh 30.06 in1017.9 mb 0.00 in0.0 mm 0.00 in/hr0.0 mm/hr 0.01 in0.3 mm
08:44 PM 45.2°F7.3°C 33.8°F1.0°C 64% 1.4 mph SSW2.3 kmh SSW 2.0 mph3.2 kmh 30.07 in1018.3 mb 0.00 in0.0 mm 0.00 in/hr0.0 mm/hr 0.01 in0.3 mm
08:49 PM 45.2°F7.3°C 33.4°F0.8°C 63% 4.0 mph SSW6.4 kmh SSW 7.0 mph11.3 kmh 30.07 in1018.3 mb 0.00 in0.0 mm 0.00 in/hr0.0 mm/hr 0.01 in0.3 mm
08:54 PM 45.2°F7.3°C 33.4°F0.8°C 63% 2.0 mph S3.2 kmh S 7.0 mph11.3 kmh 30.07 in1018.3 mb 0.00 in0.0 mm 0.00 in/hr0.0 mm/hr 0.01 in0.3 mm
08:59 PM 45.2°F7.3°C 33.4°F0.8°C 63% 3.5 mph SSW5.6 kmh SSW 8.0 mph12.9 kmh 30.06 in1017.9 mb 0.00 in0.0 mm 0.00 in/hr0.0 mm/hr 0.01 in0.3 mm
09:04 PM 45.2°F7.3°C 33.4°F0.8°C 63% 2.9 mph SW4.7 kmh SW 8.0 mph12.9 kmh 30.06 in1017.9 mb 0.00 in0.0 mm 0.00 in/hr0.0 mm/hr 0.01 in0.3 mm
09:09 PM 45.4°F7.4°C 33.6°F0.9°C 63% 4.4 mph SW7.1 kmh SW 10.0 mph16.1 kmh 30.07 in1018.3 mb 0.00 in0.0 mm 0.00 in/hr0.0 mm/hr 0.01 in0.3 mm
09:14 PM 45.4°F7.4°C 33.6°F0.9°C 63% 2.3 mph SW3.7 kmh SW 10.0 mph16.1 kmh 30.06 in1017.9 mb 0.00 in0.0 mm 0.00 in/hr0.0 mm/hr 0.01 in0.3 mm
09:19 PM 45.4°F7.4°C 33.6°F0.9°C 63% 1.6 mph SSW2.6 kmh SSW 7.0 mph11.3 kmh 30.06 in1017.9 mb 0.00 in0.0 mm 0.00 in/hr0.0 mm/hr 0.01 in0.3 mm
09:24 PM 45.3°F7.4°C 33.9°F1.1°C 64% Calm Calm 4.0 mph6.4 kmh 30.06 in1017.9 mb 0.00 in0.0 mm 0.00 in/hr0.0 mm/hr 0.01 in0.3 mm
09:29 PM 45.2°F7.3°C 34.2°F1.2°C 65% 3.4 mph SW5.5 kmh SW 7.0 mph11.3 kmh 30.06 in1017.9 mb 0.00 in0.0 mm 0.00 in/hr0.0 mm/hr 0.01 in0.3 mm
09:34 PM 45.1°F7.3°C 34.1°F1.2°C 65% 3.1 mph SSW5.0 kmh SSW 7.0 mph11.3 kmh 30.06 in1017.9 mb 0.00 in0.0 mm 0.00 in/hr0.0 mm/hr 0.01 in0.3 mm
09:39 PM 45.1°F7.3°C 34.5°F1.4°C 66% 2.7 mph SW4.3 kmh SW 6.0 mph9.7 kmh 30.06 in1017.9 mb 0.00 in0.0 mm 0.00 in/hr0.0 mm/hr 0.01 in0.3 mm
09:44 PM 45.1°F7.3°C 34.5°F1.4°C 66% 3.1 mph SSW5.0 kmh SSW 8.0 mph12.9 kmh 30.06 in1017.9 mb 0.00 in0.0 mm 0.00 in/hr0.0 mm/hr 0.01 in0.3 mm
09:49 PM 45.2°F7.3°C 34.6°F1.4°C 66% 4.3 mph SW6.9 kmh SW 8.0 mph12.9 kmh 30.07 in1018.3 mb 0.00 in0.0 mm 0.00 in/hr0.0 mm/hr 0.01 in0.3 mm
09:54 PM 45.2°F7.3°C 34.2°F1.2°C 65% 3.5 mph SW5.6 kmh SW 8.0 mph12.9 kmh 30.07 in1018.3 mb 0.00 in0.0 mm 0.00 in/hr0.0 mm/hr 0.01 in0.3 mm
09:59 PM 45.2°F7.3°C 34.2°F1.2°C 65% 3.7 mph SW6.0 kmh SW 8.0 mph12.9 kmh 30.06 in1017.9 mb 0.00 in0.0 mm 0.00 in/hr0.0 mm/hr 0.01 in0.3 mm
10:04 PM 45.4°F7.4°C 34.4°F1.3°C 65% 9.1 mph SW14.6 kmh SW 15.0 mph24.1 kmh 30.07 in1018.3 mb 0.00 in0.0 mm 0.00 in/hr0.0 mm/hr 0.01 in0.3 mm
10:09 PM 45.5°F7.5°C 33.7°F0.9°C 63% 9.9 mph SW15.9 kmh SW 15.0 mph24.1 kmh 30.07 in1018.3 mb 0.00 in0.0 mm 0.00 in/hr0.0 mm/hr 0.01 in0.3 mm
10:14 PM 45.6°F7.6°C 33.8°F1.0°C 63% 7.9 mph SW12.7 kmh SW 14.0 mph22.5 kmh 30.07 in1018.3 mb 0.00 in0.0 mm 0.00 in/hr0.0 mm/hr 0.01 in0.3 mm
10:19 PM 45.4°F7.4°C 33.6°F0.9°C 63% 9.3 mph SW15.0 kmh SW 14.0 mph22.5 kmh 30.07 in1018.3 mb 0.00 in0.0 mm 0.00 in/hr0.0 mm/hr 0.01 in0.3 mm
10:24 PM 45.4°F7.4°C 34.0°F1.1°C 64% 10.3 mph SW16.6 kmh SW 15.0 mph24.1 kmh 30.07 in1018.3 mb 0.00 in0.0 mm 0.00 in/hr0.0 mm/hr 0.01 in0.3 mm
10:29 PM 45.2°F7.3°C 34.2°F1.2°C 65% 9.2 mph SW14.8 kmh SW 15.0 mph24.1 kmh 30.07 in1018.3 mb 0.00 in0.0 mm 0.00 in/hr0.0 mm/hr 0.01 in0.3 mm
10:34 PM 45.0°F7.2°C 34.0°F1.1°C 65% 9.6 mph SW15.4 kmh SW 15.0 mph24.1 kmh 30.07 in1018.3 mb 0.00 in0.0 mm 0.00 in/hr0.0 mm/hr 0.01 in0.3 mm
10:39 PM 44.8°F7.1°C 34.2°F1.2°C 66% 9.0 mph SW14.5 kmh SW 15.0 mph24.1 kmh 30.07 in1018.3 mb 0.00 in0.0 mm 0.00 in/hr0.0 mm/hr 0.01 in0.3 mm
10:44 PM 44.7°F7.1°C 34.5°F1.4°C 67% 10.0 mph WSW16.1 kmh WSW 15.0 mph24.1 kmh 30.08 in1018.6 mb 0.00 in0.0 mm 0.00 in/hr0.0 mm/hr 0.01 in0.3 mm
10:49 PM 44.6°F7.0°C 34.8°F1.6°C 68% 9.4 mph SW15.1 kmh SW 15.0 mph24.1 kmh 30.08 in1018.6 mb 0.00 in0.0 mm 0.00 in/hr0.0 mm/hr 0.01 in0.3 mm
10:55 PM 44.4°F6.9°C 35.0°F1.7°C 69% 6.9 mph SW11.1 kmh SW 14.0 mph22.5 kmh 30.08 in1018.6 mb 0.00 in0.0 mm 0.00 in/hr0.0 mm/hr 0.01 in0.3 mm
11:00 PM 44.3°F6.8°C 35.2°F1.8°C 70% 6.1 mph WSW9.8 kmh WSW 12.0 mph19.3 kmh 30.08 in1018.6 mb 0.00 in0.0 mm 0.00 in/hr0.0 mm/hr 0.01 in0.3 mm
11:05 PM 44.1°F6.7°C 35.4°F1.9°C 71% 5.5 mph WSW8.9 kmh WSW 11.0 mph17.7 kmh 30.09 in1019.0 mb 0.01 in0.3 mm 0.12 in/hr3.0 mm/hr 0.01 in0.3 mm
11:10 PM 43.9°F6.6°C 35.5°F1.9°C 72% 5.5 mph WSW8.9 kmh WSW 10.0 mph16.1 kmh 30.09 in1019.0 mb 0.01 in0.3 mm 0.00 in/hr0.0 mm/hr 0.01 in0.3 mm
11:15 PM 43.8°F6.6°C 35.8°F2.1°C 73% 6.7 mph WSW10.8 kmh WSW 10.0 mph16.1 kmh 30.08 in1018.6 mb 0.01 in0.3 mm 0.00 in/hr0.0 mm/hr 0.01 in0.3 mm
11:20 PM 43.7°F6.5°C 35.7°F2.1°C 73% 3.4 mph WSW5.5 kmh WSW 9.0 mph14.5 kmh 30.09 in1019.0 mb 0.01 in0.3 mm 0.00 in/hr0.0 mm/hr 0.01 in0.3 mm
11:25 PM 43.5°F6.4°C 35.5°F1.9°C 73% 2.5 mph WSW4.0 kmh WSW 7.0 mph11.3 kmh 30.08 in1018.6 mb 0.01 in0.3 mm 0.00 in/hr0.0 mm/hr 0.01 in0.3 mm
11:30 PM 43.5°F6.4°C 35.1°F1.7°C 72% 7.0 mph WSW11.3 kmh WSW 12.0 mph19.3 kmh 30.09 in1019.0 mb 0.01 in0.3 mm 0.00 in/hr0.0 mm/hr 0.01 in0.3 mm
11:35 PM 43.4°F6.3°C 34.7°F1.5°C 71% 9.5 mph WSW15.3 kmh WSW 16.0 mph25.7 kmh 30.09 in1019.0 mb 0.01 in0.3 mm 0.00 in/hr0.0 mm/hr 0.01 in0.3 mm
11:40 PM 43.4°F6.3°C 34.7°F1.5°C 71% 11.0 mph WSW17.7 kmh WSW 18.0 mph29.0 kmh 30.10 in1019.3 mb 0.01 in0.3 mm 0.00 in/hr0.0 mm/hr 0.01 in0.3 mm
11:45 PM 43.1°F6.2°C 35.1°F1.7°C 73% 11.4 mph WSW18.3 kmh WSW 18.0 mph29.0 kmh 30.10 in1019.3 mb 0.01 in0.3 mm 0.00 in/hr0.0 mm/hr 0.01 in0.3 mm
11:50 PM 42.8°F6.0°C 34.8°F1.6°C 73% 10.4 mph WSW16.7 kmh WSW 18.0 mph29.0 kmh 30.10 in1019.3 mb 0.01 in0.3 mm 0.00 in/hr0.0 mm/hr 0.01 in0.3 mm
11:55 PM 42.5°F5.8°C 34.5°F1.4°C 73% 9.6 mph SW15.4 kmh SW 16.0 mph25.7 kmh 30.10 in1019.3 mb 0.01 in0.3 mm 0.00 in/hr0.0 mm/hr 0.01 in0.3 mm